createdAt,value
2018-11-12T00:00:15.740Z,5.80
2018-11-12T00:02:46.233Z,5.70
2018-11-12T00:05:14.853Z,5.80
2018-11-12T00:07:43.399Z,5.70
2018-11-12T00:10:12.125Z,5.70
2018-11-12T00:12:41.037Z,5.60
2018-11-12T00:15:11.090Z,5.60
2018-11-12T00:17:39.646Z,5.60
2018-11-12T00:20:09.578Z,5.50
2018-11-12T00:22:38.433Z,5.40
2018-11-12T00:25:07.153Z,5.30
2018-11-12T00:27:36.005Z,5.30
2018-11-12T00:30:05.430Z,5.20
2018-11-12T00:32:33.932Z,5.10
2018-11-12T00:35:02.555Z,5.20
2018-11-12T00:37:31.096Z,5.10
2018-11-12T00:39:59.681Z,5.20
2018-11-12T00:42:28.230Z,5.20
2018-11-12T00:44:56.782Z,5.20
2018-11-12T00:47:25.351Z,5.20
2018-11-12T00:49:54.167Z,5.20
2018-11-12T00:52:22.786Z,5.20
2018-11-12T00:54:51.321Z,5.20
2018-11-12T00:57:19.849Z,5.10
2018-11-12T00:59:48.415Z,5.10
2018-11-12T01:02:17.123Z,5.10
2018-11-12T01:04:45.679Z,5.10
2018-11-12T01:07:14.310Z,5.00
2018-11-12T01:09:42.990Z,4.90
2018-11-12T01:12:11.537Z,4.80
2018-11-12T01:14:40.053Z,4.80
2018-11-12T01:17:08.608Z,4.70
2018-11-12T01:19:37.114Z,4.70
2018-11-12T01:22:05.837Z,4.60
2018-11-12T01:24:34.342Z,4.60
2018-11-12T01:27:02.892Z,4.60
2018-11-12T01:29:31.418Z,4.60
2018-11-12T01:32:00.077Z,4.60
2018-11-12T01:34:28.637Z,4.60
2018-11-12T01:36:57.165Z,4.60
2018-11-12T01:39:25.693Z,4.60
2018-11-12T01:41:54.242Z,4.50
2018-11-12T01:44:22.894Z,4.50
2018-11-12T01:46:51.465Z,4.50
2018-11-12T01:49:20.054Z,4.50
2018-11-12T01:51:48.758Z,4.50
2018-11-12T01:54:17.281Z,4.40
2018-11-12T01:56:45.793Z,4.40
2018-11-12T01:59:14.357Z,4.40
2018-11-12T02:01:42.947Z,4.40
2018-11-12T02:04:11.487Z,4.40
2018-11-12T02:06:40.047Z,4.40
2018-11-12T02:09:10.844Z,4.30
2018-11-12T02:11:39.527Z,4.30
2018-11-12T02:14:08.446Z,4.30
2018-11-12T02:16:37.097Z,4.30
2018-11-12T02:19:06.248Z,4.30
2018-11-12T02:21:34.883Z,4.30
2018-11-12T02:24:03.489Z,4.40
2018-11-12T02:26:31.996Z,4.30
2018-11-12T02:29:00.547Z,4.30
2018-11-12T02:31:29.134Z,4.20
2018-11-12T02:33:57.718Z,4.20
2018-11-12T02:36:26.234Z,4.20
2018-11-12T02:38:54.773Z,4.10
2018-11-12T02:41:23.358Z,4.10
2018-11-12T02:43:52.001Z,4.00
2018-11-12T02:46:20.541Z,4.00
2018-11-12T02:48:49.118Z,4.00
2018-11-12T02:51:17.730Z,4.00
2018-11-12T02:53:46.333Z,4.00
2018-11-12T02:56:14.931Z,4.00
2018-11-12T02:58:43.454Z,3.90
2018-11-12T03:01:11.979Z,4.00
2018-11-12T03:03:40.842Z,3.90
2018-11-12T03:06:09.382Z,3.90
2018-11-12T03:08:37.905Z,3.80
2018-11-12T03:11:06.461Z,3.80
2018-11-12T03:13:35.046Z,3.80
2018-11-12T03:16:03.673Z,3.80
2018-11-12T03:18:32.205Z,3.80
2018-11-12T03:21:00.789Z,3.80
2018-11-12T03:23:29.337Z,3.80
2018-11-12T03:25:57.885Z,3.80
2018-11-12T03:28:26.445Z,3.80
2018-11-12T03:30:55.033Z,3.80
2018-11-12T03:33:23.581Z,3.80
2018-11-12T03:35:52.117Z,3.70
2018-11-12T03:38:20.713Z,3.70
2018-11-12T03:40:49.230Z,3.80
2018-11-12T03:43:17.754Z,3.80
2018-11-12T03:45:46.313Z,3.80
2018-11-12T03:48:14.857Z,3.80
2018-11-12T03:50:43.381Z,3.70
2018-11-12T03:53:12.015Z,3.70
2018-11-12T03:55:40.526Z,3.70
2018-11-12T03:58:09.169Z,3.70
2018-11-12T04:00:37.826Z,3.70
2018-11-12T04:03:06.381Z,3.70
2018-11-12T04:05:34.990Z,3.80
2018-11-12T04:08:03.549Z,3.80
2018-11-12T04:10:32.147Z,3.80
2018-11-12T04:13:00.692Z,3.80
2018-11-12T04:15:29.239Z,3.80
2018-11-12T04:17:57.977Z,3.80
2018-11-12T04:20:26.482Z,3.80
2018-11-12T04:23:00.306Z,3.80
2018-11-12T04:25:28.831Z,3.80
2018-11-12T04:27:57.490Z,3.80
2018-11-12T04:30:26.071Z,3.80
2018-11-12T04:32:54.606Z,3.80
2018-11-12T04:35:23.192Z,3.80
2018-11-12T04:37:51.829Z,3.90
2018-11-12T04:40:20.686Z,3.90
2018-11-12T04:42:49.662Z,3.90
2018-11-12T04:45:19.491Z,3.90
2018-11-12T04:47:48.779Z,3.80
2018-11-12T04:50:19.529Z,3.90
2018-11-12T04:52:48.506Z,3.90
2018-11-12T04:55:18.261Z,3.80
2018-11-12T04:57:47.193Z,3.90
2018-11-12T05:00:18.190Z,3.90
2018-11-12T05:02:46.866Z,3.90
2018-11-12T05:05:16.877Z,3.80
2018-11-12T05:07:45.836Z,3.80
2018-11-12T05:10:15.957Z,3.80
2018-11-12T05:12:45.184Z,3.80
2018-11-12T05:15:16.009Z,3.80
2018-11-12T05:17:44.562Z,3.80
2018-11-12T05:20:16.394Z,3.90
2018-11-12T05:22:45.097Z,3.90
2018-11-12T05:25:13.632Z,3.90
2018-11-12T05:27:42.204Z,4.00
2018-11-12T05:30:14.170Z,4.00
2018-11-12T05:32:43.127Z,4.00
2018-11-12T05:35:12.548Z,4.10
2018-11-12T05:37:41.265Z,4.10
2018-11-12T05:40:12.660Z,4.10
2018-11-12T05:42:41.665Z,4.10
2018-11-12T05:45:10.242Z,4.10
2018-11-12T05:47:39.397Z,4.00
2018-11-12T05:50:12.315Z,4.00
2018-11-12T05:52:41.839Z,4.00
2018-11-12T05:55:11.920Z,3.90
2018-11-12T05:57:41.441Z,3.90
2018-11-12T06:00:11.846Z,3.90
2018-11-12T06:02:40.771Z,4.00
2018-11-12T06:05:11.547Z,4.10
2018-11-12T06:07:40.316Z,4.10
2018-11-12T06:10:15.223Z,4.10
2018-11-12T06:12:44.404Z,4.10
2018-11-12T06:15:13.565Z,4.10
2018-11-12T06:17:42.960Z,4.00
2018-11-12T06:20:14.753Z,4.00
2018-11-12T06:22:43.369Z,4.10
2018-11-12T06:25:13.187Z,4.00
2018-11-12T06:27:41.721Z,4.10
2018-11-12T06:30:17.542Z,4.10
2018-11-12T06:32:46.066Z,4.10
2018-11-12T06:35:15.390Z,4.10
2018-11-12T06:37:44.649Z,4.10
2018-11-12T06:40:15.586Z,4.10
2018-11-12T06:42:44.257Z,4.10
2018-11-12T06:45:15.188Z,4.00
2018-11-12T06:47:44.762Z,4.10
2018-11-12T06:50:14.636Z,4.20
2018-11-12T06:52:43.223Z,4.00
2018-11-12T06:55:12.750Z,4.00
2018-11-12T06:57:41.786Z,3.90
2018-11-12T07:00:14.185Z,3.90
2018-11-12T07:02:42.770Z,4.00
2018-11-12T07:05:11.998Z,4.10
2018-11-12T07:07:40.847Z,4.10
2018-11-12T07:10:12.344Z,4.00
2018-11-12T07:12:41.988Z,4.00
2018-11-12T07:15:12.475Z,4.00
2018-11-12T07:17:41.045Z,4.10
2018-11-12T07:20:11.210Z,4.10
2018-11-12T07:22:39.918Z,4.20
2018-11-12T07:25:10.019Z,4.10
2018-11-12T07:27:38.503Z,4.20
2018-11-12T07:30:10.653Z,4.10
2018-11-12T07:32:39.346Z,3.90
2018-11-12T07:35:09.609Z,4.00
2018-11-12T07:37:38.452Z,4.10
2018-11-12T07:40:08.422Z,4.20
2018-11-12T07:42:37.421Z,4.20
2018-11-12T07:45:07.951Z,4.10
2018-11-12T07:47:36.538Z,4.10
2018-11-12T07:50:07.733Z,4.20
2018-11-12T07:52:36.638Z,4.20
2018-11-12T07:55:06.464Z,4.20
2018-11-12T07:57:35.167Z,4.30
2018-11-12T08:00:04.406Z,4.20
2018-11-12T08:02:33.028Z,4.30
2018-11-12T08:05:01.886Z,4.40
2018-11-12T08:07:30.417Z,4.50
2018-11-12T08:09:58.972Z,4.60
2018-11-12T08:12:27.514Z,4.60
2018-11-12T08:14:56.070Z,4.70
2018-11-12T08:17:24.619Z,4.70
2018-11-12T08:19:53.165Z,4.50
2018-11-12T08:22:21.669Z,4.60
2018-11-12T08:24:50.255Z,4.70
2018-11-12T08:27:18.816Z,4.80
2018-11-12T08:29:47.761Z,4.80
2018-11-12T08:32:16.370Z,4.80
2018-11-12T08:34:45.007Z,4.90
2018-11-12T08:37:13.575Z,5.00
2018-11-12T08:39:42.269Z,4.80
2018-11-12T08:42:10.714Z,4.90
2018-11-12T08:44:39.258Z,5.00
2018-11-12T08:47:07.838Z,5.00
2018-11-12T08:49:36.594Z,5.10
2018-11-12T08:52:05.586Z,5.10
2018-11-12T08:54:34.222Z,5.10
2018-11-12T08:57:03.409Z,5.10
2018-11-12T08:59:32.197Z,5.20
2018-11-12T09:02:00.743Z,5.30
2018-11-12T09:04:29.283Z,5.50
2018-11-12T09:06:57.876Z,5.50
2018-11-12T09:09:26.434Z,5.30
2018-11-12T09:11:55.189Z,5.30
2018-11-12T09:14:23.734Z,5.40
2018-11-12T09:16:52.304Z,5.60
2018-11-12T09:19:20.901Z,5.80
2018-11-12T09:21:49.441Z,5.80
2018-11-12T09:24:18.029Z,5.90
2018-11-12T09:26:46.537Z,6.00
2018-11-12T09:29:15.119Z,6.30
2018-11-12T09:31:43.658Z,6.60
2018-11-12T09:34:12.173Z,6.70
2018-11-12T09:36:40.791Z,6.80
2018-11-12T09:39:11.203Z,6.80
2018-11-12T09:41:39.806Z,6.80
2018-11-12T09:44:08.370Z,6.80
2018-11-12T09:46:37.001Z,6.90
2018-11-12T09:49:06.387Z,7.10
2018-11-12T09:51:34.949Z,7.10
2018-11-12T09:54:03.609Z,7.20
2018-11-12T09:56:32.118Z,7.40
2018-11-12T09:59:00.653Z,8.10
2018-11-12T10:01:54.759Z,8.60
2018-11-12T10:04:23.335Z,9.00
2018-11-12T10:06:53.008Z,9.40
2018-11-12T10:09:21.690Z,9.60
2018-11-12T10:11:50.532Z,9.50
2018-11-12T10:14:19.183Z,9.90
2018-11-12T10:16:47.262Z,10.30
2018-11-12T10:19:14.579Z,10.60
2018-11-12T10:21:43.117Z,10.60
2018-11-12T10:24:11.661Z,10.40
2018-11-12T10:26:40.197Z,10.10
2018-11-12T10:29:08.766Z,10.00
2018-11-12T10:31:37.291Z,9.90
2018-11-12T10:34:06.304Z,10.00
2018-11-12T10:36:34.870Z,9.60
2018-11-12T10:39:04.879Z,9.50
2018-11-12T10:41:33.414Z,9.50
2018-11-12T10:44:02.070Z,9.70
2018-11-12T10:46:30.599Z,9.80
2018-11-12T10:48:59.431Z,10.10
2018-11-12T10:51:28.005Z,10.10
2018-11-12T10:53:56.837Z,10.40
2018-11-12T10:56:25.245Z,10.90
2018-11-12T10:58:53.814Z,11.10
2018-11-12T11:01:27.683Z,11.10
2018-11-12T11:04:01.637Z,10.90
2018-11-12T11:06:30.259Z,11.10
2018-11-12T11:08:58.840Z,11.00
2018-11-12T11:11:27.437Z,11.40
2018-11-12T11:13:55.985Z,11.50
2018-11-12T11:16:24.563Z,11.30
2018-11-12T11:18:53.093Z,11.30
2018-11-12T11:21:21.775Z,11.50
2018-11-12T11:23:50.228Z,11.80
2018-11-12T11:26:18.778Z,11.50
2018-11-12T11:28:47.337Z,11.90
2018-11-12T11:31:15.886Z,12.50
2018-11-12T11:33:44.451Z,13.00
2018-11-12T11:36:13.142Z,12.70
2018-11-12T11:38:41.702Z,13.10
2018-11-12T11:41:10.293Z,13.20
2018-11-12T11:43:38.895Z,13.30
2018-11-12T11:46:07.501Z,13.70
2018-11-12T11:48:36.037Z,14.20
2018-11-12T11:51:04.745Z,14.00
2018-11-12T11:53:33.409Z,13.80
2018-11-12T11:56:01.942Z,13.90
2018-11-12T11:58:30.535Z,14.40
2018-11-12T12:00:59.150Z,14.70
2018-11-12T12:03:27.737Z,14.70
2018-11-12T12:05:56.276Z,15.00
2018-11-12T12:08:24.906Z,14.80
2018-11-12T12:10:53.464Z,14.40
2018-11-12T12:13:22.091Z,14.30
2018-11-12T12:15:50.610Z,14.70
2018-11-12T12:18:19.258Z,14.90
2018-11-12T12:20:47.810Z,14.90
2018-11-12T12:23:16.481Z,14.50
2018-11-12T12:25:45.206Z,14.70
2018-11-12T12:28:13.719Z,14.80
2018-11-12T12:30:42.499Z,14.80
2018-11-12T12:33:11.034Z,14.70
2018-11-12T12:35:39.588Z,14.80
2018-11-12T12:38:08.099Z,15.10
2018-11-12T12:40:36.745Z,15.10
2018-11-12T12:43:05.557Z,14.90
2018-11-12T12:45:34.309Z,14.90
2018-11-12T12:48:02.831Z,14.80
2018-11-12T12:50:31.497Z,14.90
2018-11-12T12:53:00.049Z,14.80
2018-11-12T12:55:28.692Z,14.70
2018-11-12T12:57:57.169Z,14.60
2018-11-12T13:00:26.981Z,14.50
2018-11-12T13:02:55.674Z,15.00
2018-11-12T13:05:24.276Z,15.10
2018-11-12T13:07:52.912Z,15.00
2018-11-12T13:10:22.630Z,15.10
2018-11-12T13:12:51.255Z,15.00
2018-11-12T13:15:20.515Z,15.00
2018-11-12T13:17:49.818Z,14.90
2018-11-12T13:20:19.733Z,14.80
2018-11-12T13:22:48.905Z,14.70
2018-11-12T13:25:17.776Z,14.60
2018-11-12T13:27:46.894Z,14.50
2018-11-12T13:30:20.100Z,14.60
2018-11-12T13:32:48.955Z,14.60
2018-11-12T13:35:19.568Z,14.70
2018-11-12T13:37:48.137Z,14.80
2018-11-12T13:40:18.158Z,14.70
2018-11-12T13:42:48.360Z,14.30
2018-11-12T13:45:16.987Z,14.20
2018-11-12T13:47:46.410Z,14.30
2018-11-12T13:50:16.360Z,14.10
2018-11-12T13:52:45.314Z,14.10
2018-11-12T13:55:14.796Z,14.10
2018-11-12T13:57:43.353Z,14.00
2018-11-12T14:00:14.166Z,14.00
2018-11-12T14:02:43.716Z,13.90
2018-11-12T14:05:14.464Z,14.00
2018-11-12T14:07:43.721Z,13.90
2018-11-12T14:10:13.762Z,13.90
2018-11-12T14:12:42.816Z,13.80
2018-11-12T14:15:14.120Z,13.90
2018-11-12T14:17:43.249Z,13.80
2018-11-12T14:20:11.986Z,13.70
2018-11-12T14:22:40.527Z,13.70
2018-11-12T14:25:10.658Z,13.70
2018-11-12T14:27:39.230Z,13.60
2018-11-12T14:30:09.722Z,13.40
2018-11-12T14:32:38.290Z,13.30
2018-11-12T14:35:07.817Z,13.20
2018-11-12T14:37:36.756Z,13.20
2018-11-12T14:40:06.696Z,13.20
2018-11-12T14:42:35.365Z,13.00
2018-11-12T14:45:04.354Z,13.00
2018-11-12T14:47:32.911Z,12.90
2018-11-12T14:50:01.782Z,12.80
2018-11-12T14:52:30.436Z,12.90
2018-11-12T14:54:59.078Z,12.80
2018-11-12T14:57:27.603Z,12.80
2018-11-12T14:59:56.211Z,12.60
2018-11-12T15:02:25.143Z,12.50
2018-11-12T15:04:53.873Z,12.40
2018-11-12T15:07:22.640Z,12.40
2018-11-12T15:09:51.285Z,12.30
2018-11-12T15:12:19.926Z,12.30
2018-11-12T15:14:48.752Z,12.20
2018-11-12T15:17:17.215Z,12.10
2018-11-12T15:19:45.808Z,12.00
2018-11-12T15:22:14.382Z,12.00
2018-11-12T15:24:42.966Z,12.00
2018-11-12T15:27:11.567Z,11.90
2018-11-12T15:29:40.186Z,11.80
2018-11-12T15:32:08.982Z,11.70
2018-11-12T15:34:37.623Z,11.60
2018-11-12T15:37:06.584Z,11.50
2018-11-12T15:39:34.990Z,11.30
2018-11-12T15:42:03.641Z,11.30
2018-11-12T15:44:32.167Z,11.20
2018-11-12T15:47:00.906Z,11.10
2018-11-12T15:49:29.454Z,11.00
2018-11-12T15:51:58.313Z,10.90
2018-11-12T15:54:27.018Z,10.80
2018-11-12T15:56:55.588Z,10.70
2018-11-12T15:59:24.245Z,10.60
2018-11-12T16:01:52.838Z,10.40
2018-11-12T16:04:21.355Z,10.30
2018-11-12T16:06:49.943Z,10.20
2018-11-12T16:09:18.631Z,10.20
2018-11-12T16:11:47.449Z,10.10
2018-11-12T16:14:16.161Z,10.00
2018-11-12T16:16:44.826Z,9.90
2018-11-12T16:19:13.567Z,9.80
2018-11-12T16:21:42.328Z,9.70
2018-11-12T16:24:10.989Z,9.60
2018-11-12T16:26:39.706Z,9.60
2018-11-12T16:29:08.155Z,9.50
2018-11-12T16:31:36.857Z,9.40
2018-11-12T16:34:05.508Z,9.30
2018-11-12T16:36:34.191Z,9.20
2018-11-12T16:39:02.986Z,9.10
2018-11-12T16:41:31.526Z,9.00
2018-11-12T16:44:00.114Z,8.90
2018-11-12T16:46:28.773Z,8.90
2018-11-12T16:48:57.423Z,8.80
2018-11-12T16:51:25.960Z,8.70
2018-11-12T16:53:54.674Z,8.70
2018-11-12T16:56:23.345Z,8.60
2018-11-12T16:58:52.019Z,8.50
2018-11-12T17:01:20.611Z,8.50
2018-11-12T17:03:49.329Z,8.40
2018-11-12T17:06:17.862Z,8.30
2018-11-12T17:08:46.597Z,8.30
2018-11-12T17:11:15.212Z,8.20
2018-11-12T17:13:43.865Z,8.10
2018-11-12T17:16:12.499Z,8.10
2018-11-12T17:18:41.232Z,8.00
2018-11-12T17:21:09.808Z,7.90
2018-11-12T17:23:38.678Z,7.80
2018-11-12T17:26:07.277Z,7.80
2018-11-12T17:28:36.050Z,7.70
2018-11-12T17:31:04.968Z,7.70
2018-11-12T17:33:33.937Z,7.70
2018-11-12T17:36:02.502Z,7.50
2018-11-12T17:38:31.203Z,7.50
2018-11-12T17:40:59.806Z,7.50
2018-11-12T17:43:28.342Z,7.40
2018-11-12T17:45:57.221Z,7.40
2018-11-12T17:48:25.784Z,7.30
2018-11-12T17:50:54.393Z,7.30
2018-11-12T17:53:22.970Z,7.30
2018-11-12T17:55:51.566Z,7.20
2018-11-12T17:58:20.262Z,7.20
2018-11-12T18:00:48.881Z,7.10
2018-11-12T18:03:17.490Z,7.00
2018-11-12T18:05:46.031Z,6.90
2018-11-12T18:08:14.724Z,6.90
2018-11-12T18:10:43.274Z,6.80
2018-11-12T18:13:11.882Z,6.80
2018-11-12T18:15:40.466Z,6.80
2018-11-12T18:18:09.191Z,6.70
2018-11-12T18:20:37.866Z,6.60
2018-11-12T18:23:06.664Z,6.60
2018-11-12T18:25:35.281Z,6.50
2018-11-12T18:28:03.967Z,6.40
2018-11-12T18:30:32.982Z,6.40
2018-11-12T18:33:01.466Z,6.40
2018-11-12T18:35:30.099Z,6.40
2018-11-12T18:37:58.815Z,6.30
2018-11-12T18:40:28.667Z,6.30
2018-11-12T18:42:57.204Z,6.30
2018-11-12T18:45:26.846Z,6.20
2018-11-12T18:47:55.702Z,6.10
2018-11-12T18:50:25.659Z,6.10
2018-11-12T18:52:54.259Z,6.10
2018-11-12T18:55:22.923Z,6.00
2018-11-12T18:57:51.937Z,6.00
2018-11-12T19:00:21.936Z,6.00
2018-11-12T19:02:51.090Z,6.00
2018-11-12T19:05:22.143Z,6.00
2018-11-12T19:07:52.043Z,6.20
2018-11-12T19:10:22.299Z,6.20
2018-11-12T19:12:51.557Z,6.20
2018-11-12T19:15:21.778Z,6.20
2018-11-12T19:17:54.239Z,6.20
2018-11-12T19:20:22.847Z,6.20
2018-11-12T19:22:51.634Z,6.20
2018-11-12T19:25:20.259Z,6.20
2018-11-12T19:27:48.831Z,6.20
2018-11-12T19:30:19.789Z,6.20
2018-11-12T19:32:48.488Z,6.30
2018-11-12T19:35:18.350Z,6.30
2018-11-12T19:37:47.125Z,6.20
2018-11-12T19:40:17.967Z,6.20
2018-11-12T19:42:47.662Z,6.30
2018-11-12T19:45:16.410Z,6.30
2018-11-12T19:47:45.781Z,6.30
2018-11-12T19:50:15.750Z,6.30
2018-11-12T19:52:45.485Z,6.30
2018-11-12T19:55:14.358Z,6.30
2018-11-12T19:57:43.165Z,6.30
2018-11-12T20:00:15.750Z,6.30
2018-11-12T20:02:45.367Z,6.30
2018-11-12T20:05:14.162Z,6.30
2018-11-12T20:07:43.326Z,6.30
2018-11-12T20:10:13.738Z,6.30
2018-11-12T20:12:42.465Z,6.30
2018-11-12T20:15:12.350Z,6.30
2018-11-12T20:17:41.931Z,6.20
2018-11-12T20:20:13.381Z,6.20
2018-11-12T20:22:42.250Z,6.20
2018-11-12T20:25:12.191Z,6.20
2018-11-12T20:27:40.789Z,6.20
2018-11-12T20:30:13.465Z,6.20
2018-11-12T20:32:42.166Z,6.10
2018-11-12T20:35:10.865Z,6.10
2018-11-12T20:37:39.751Z,6.10
2018-11-12T20:40:10.118Z,6.00
2018-11-12T20:42:38.730Z,6.00
2018-11-12T20:45:09.249Z,6.00
2018-11-12T20:47:38.122Z,6.00
2018-11-12T20:50:08.094Z,6.00
2018-11-12T20:52:36.773Z,5.90
2018-11-12T20:55:06.401Z,5.90
2018-11-12T20:57:35.013Z,5.80
2018-11-12T21:00:04.207Z,5.80
2018-11-12T21:02:32.946Z,5.70
2018-11-12T21:05:01.547Z,5.70
2018-11-12T21:07:30.101Z,5.70
2018-11-12T21:09:58.656Z,5.70
2018-11-12T21:12:27.619Z,5.60
2018-11-12T21:14:56.345Z,5.60
2018-11-12T21:17:24.987Z,5.60
2018-11-12T21:19:53.874Z,5.60
2018-11-12T21:22:22.460Z,5.50
2018-11-12T21:24:51.017Z,5.50
2018-11-12T21:27:19.839Z,5.50
2018-11-12T21:29:48.469Z,5.40
2018-11-12T21:32:17.071Z,5.40
2018-11-12T21:34:45.886Z,5.40
2018-11-12T21:37:14.615Z,5.40
2018-11-12T21:39:43.123Z,5.30
2018-11-12T21:42:11.749Z,5.30
2018-11-12T21:44:40.321Z,5.30
2018-11-12T21:47:08.898Z,5.30
2018-11-12T21:49:37.606Z,5.30
2018-11-12T21:52:06.265Z,5.30
2018-11-12T21:54:34.968Z,5.30
2018-11-12T21:57:03.617Z,5.20
2018-11-12T21:59:32.184Z,5.20
2018-11-12T22:02:00.717Z,5.20
2018-11-12T22:04:29.326Z,5.10
2018-11-12T22:06:57.950Z,5.10
2018-11-12T22:09:26.617Z,5.10
2018-11-12T22:11:55.182Z,5.10
2018-11-12T22:14:23.770Z,5.10
2018-11-12T22:16:52.358Z,5.10
2018-11-12T22:19:21.112Z,5.10
2018-11-12T22:21:49.570Z,5.00
2018-11-12T22:24:18.130Z,4.90
2018-11-12T22:26:46.789Z,4.90
2018-11-12T22:29:15.337Z,4.90
2018-11-12T22:31:43.869Z,4.90
2018-11-12T22:34:12.445Z,4.90
2018-11-12T22:36:41.205Z,4.90
2018-11-12T22:39:10.683Z,4.80
2018-11-12T22:41:39.235Z,4.80
2018-11-12T22:44:08.018Z,4.80
2018-11-12T22:46:36.634Z,4.80
2018-11-12T22:49:05.321Z,4.80
2018-11-12T22:51:33.864Z,4.80
2018-11-12T22:54:02.732Z,4.80
2018-11-12T22:56:31.310Z,4.80
2018-11-12T22:58:59.838Z,4.70
2018-11-12T23:01:28.469Z,4.70
2018-11-12T23:03:57.109Z,4.70
2018-11-12T23:06:25.673Z,4.70
2018-11-12T23:08:54.341Z,4.70
2018-11-12T23:11:23.058Z,4.80
2018-11-12T23:13:51.578Z,4.80
2018-11-12T23:16:20.238Z,4.70
2018-11-12T23:18:48.875Z,4.70
2018-11-12T23:21:17.440Z,4.70
2018-11-12T23:23:45.995Z,4.70
2018-11-12T23:26:14.615Z,4.70
2018-11-12T23:28:43.160Z,4.60
2018-11-12T23:31:11.741Z,4.60
2018-11-12T23:33:40.351Z,4.60
2018-11-12T23:36:08.981Z,4.60
2018-11-12T23:38:37.502Z,4.60
2018-11-12T23:41:06.438Z,4.50
2018-11-12T23:43:34.977Z,4.60
2018-11-12T23:46:03.593Z,4.60
2018-11-12T23:48:32.169Z,4.60
2018-11-12T23:51:00.738Z,4.60
2018-11-12T23:53:29.334Z,4.60
2018-11-12T23:55:57.898Z,4.60
2018-11-12T23:58:26.450Z,4.60
